createdAt,value
2022-12-15T00:02:14.378Z,28.52
2022-12-15T00:05:01.646Z,31.00
2022-12-15T00:07:47.447Z,27.10
2022-12-15T00:10:33.816Z,34.13
2022-12-15T00:13:19.890Z,31.55
2022-12-15T00:16:06.440Z,23.48
2022-12-15T00:18:52.782Z,35.00
2022-12-15T00:21:38.899Z,29.92
2022-12-15T00:24:25.239Z,25.90
2022-12-15T00:27:11.382Z,26.48
2022-12-15T00:29:57.455Z,30.52
2022-12-15T00:32:43.495Z,25.40
2022-12-15T00:35:29.624Z,24.10
2022-12-15T00:38:15.271Z,25.30
2022-12-15T00:40:42.477Z,28.02
2022-12-15T00:43:12.055Z,24.63
2022-12-15T00:48:25.575Z,29.00
2022-12-15T00:50:52.830Z,28.42
2022-12-15T00:53:39.438Z,26.48
2022-12-15T00:56:25.820Z,28.23
2022-12-15T00:59:12.005Z,24.67
2022-12-15T01:01:58.148Z,28.27
2022-12-15T01:04:44.016Z,25.27
2022-12-15T01:07:30.481Z,29.52
2022-12-15T01:10:16.172Z,22.08
2022-12-15T01:13:02.594Z,23.58
2022-12-15T01:15:48.664Z,29.92
2022-12-15T01:18:34.781Z,28.23
2022-12-15T01:21:03.358Z,23.23
2022-12-15T01:23:31.851Z,26.65
2022-12-15T01:25:59.352Z,27.05
2022-12-15T01:28:26.635Z,21.40
2022-12-15T01:30:53.939Z,30.88
2022-12-15T01:33:21.518Z,30.75
2022-12-15T01:35:58.135Z,26.40
2022-12-15T01:38:25.902Z,26.52
2022-12-15T01:40:54.927Z,22.33
2022-12-15T01:43:26.302Z,24.52
2022-12-15T01:46:05.425Z,23.02
2022-12-15T01:48:39.440Z,25.27
2022-12-15T01:51:13.237Z,24.00
2022-12-15T01:53:45.985Z,25.90
2022-12-15T01:56:17.695Z,26.48
2022-12-15T01:58:46.442Z,25.92
2022-12-15T02:01:13.849Z,28.67
2022-12-15T02:03:42.179Z,34.40
2022-12-15T02:06:09.553Z,26.17
2022-12-15T02:08:38.023Z,29.35
2022-12-15T02:11:20.488Z,29.00
2022-12-15T02:14:07.212Z,23.33
2022-12-15T02:16:34.524Z,29.38
2022-12-15T02:19:13.209Z,29.63
2022-12-15T02:21:48.580Z,21.90
2022-12-15T02:24:21.917Z,26.70
2022-12-15T02:26:51.993Z,24.85
2022-12-15T02:29:38.271Z,29.13
2022-12-15T02:32:09.568Z,23.85
2022-12-15T02:34:58.369Z,22.30
2022-12-15T02:37:35.884Z,15.88
2022-12-15T02:40:04.578Z,22.40
2022-12-15T02:42:32.791Z,21.83
2022-12-15T02:45:01.788Z,23.52
2022-12-15T02:47:29.157Z,25.05
2022-12-15T02:49:57.305Z,22.65
2022-12-15T02:52:24.599Z,22.60
2022-12-15T02:55:01.723Z,24.10
2022-12-15T02:57:48.100Z,17.33
2022-12-15T03:00:17.813Z,21.17
2022-12-15T03:02:46.325Z,19.00
2022-12-15T03:05:17.386Z,20.73
2022-12-15T03:07:45.085Z,23.23
2022-12-15T03:10:17.252Z,17.30
2022-12-15T03:12:45.140Z,16.92
2022-12-15T03:15:12.495Z,16.73
2022-12-15T03:17:39.870Z,21.90
2022-12-15T03:20:07.408Z,21.25
2022-12-15T03:22:34.729Z,14.25
2022-12-15T03:25:02.144Z,15.00
2022-12-15T03:27:29.619Z,18.15
2022-12-15T03:29:57.596Z,21.95
2022-12-15T03:32:24.942Z,18.50
2022-12-15T03:34:52.234Z,18.02
2022-12-15T03:37:19.483Z,19.27
2022-12-15T03:39:47.754Z,21.75
2022-12-15T03:42:35.024Z,21.75
2022-12-15T03:45:02.286Z,19.90
2022-12-15T03:47:29.594Z,21.60
2022-12-15T03:49:56.855Z,19.85
2022-12-15T03:52:24.151Z,21.83
2022-12-15T03:54:51.693Z,20.17
2022-12-15T03:57:18.993Z,19.63
2022-12-15T03:59:46.257Z,20.48
2022-12-15T04:02:13.850Z,19.77
2022-12-15T04:04:41.304Z,19.08
2022-12-15T04:07:09.387Z,18.65
2022-12-15T04:09:37.163Z,25.45
2022-12-15T04:12:04.643Z,21.17
2022-12-15T04:14:31.933Z,21.17
2022-12-15T04:16:59.250Z,26.27
2022-12-15T04:19:45.135Z,17.50
2022-12-15T04:22:17.662Z,22.75
2022-12-15T04:25:05.433Z,22.80
2022-12-15T04:27:51.693Z,25.08
2022-12-15T04:30:37.884Z,20.13
2022-12-15T04:33:30.453Z,20.33
2022-12-15T04:36:16.729Z,23.67
2022-12-15T04:39:02.891Z,21.75
2022-12-15T04:41:48.829Z,22.83
2022-12-15T04:44:34.736Z,22.70
2022-12-15T04:47:20.775Z,25.85
2022-12-15T04:50:06.582Z,27.50
2022-12-15T04:52:52.715Z,24.77
2022-12-15T04:55:39.004Z,23.42
2022-12-15T04:58:28.924Z,25.80
2022-12-15T05:01:17.389Z,29.83
2022-12-15T05:04:03.602Z,30.85
2022-12-15T05:06:49.615Z,26.38
2022-12-15T05:09:35.800Z,27.65
2022-12-15T05:12:21.724Z,27.38
2022-12-15T05:15:08.002Z,34.13
2022-12-15T05:17:54.028Z,28.02
2022-12-15T05:20:40.109Z,27.30
2022-12-15T05:23:26.203Z,29.27
2022-12-15T05:26:12.009Z,29.02
2022-12-15T05:28:58.184Z,25.77
2022-12-15T05:31:44.178Z,24.92
2022-12-15T05:34:11.524Z,28.52
2022-12-15T05:36:38.812Z,28.20
2022-12-15T05:39:06.204Z,29.17
2022-12-15T05:41:34.079Z,29.70
2022-12-15T05:44:01.688Z,33.65
2022-12-15T05:46:29.024Z,28.67
2022-12-15T05:48:56.431Z,24.95
2022-12-15T05:51:23.792Z,31.40
2022-12-15T05:53:51.006Z,29.58
2022-12-15T05:56:18.287Z,31.65
2022-12-15T05:58:45.861Z,28.17
2022-12-15T06:01:14.624Z,28.83
2022-12-15T06:03:42.224Z,26.98
2022-12-15T06:06:10.583Z,28.23
2022-12-15T06:08:39.108Z,26.25
2022-12-15T06:11:06.478Z,30.05
2022-12-15T06:13:34.982Z,30.92
2022-12-15T06:16:04.470Z,27.10
2022-12-15T06:18:33.790Z,34.45
2022-12-15T06:21:05.482Z,25.17
2022-12-15T06:23:34.488Z,32.05
2022-12-15T06:26:09.689Z,26.10
2022-12-15T06:28:37.000Z,28.88
2022-12-15T06:31:05.412Z,26.55
2022-12-15T06:33:33.160Z,29.60
2022-12-15T06:36:04.983Z,35.38
2022-12-15T06:38:32.378Z,33.28
2022-12-15T06:41:00.568Z,40.08
2022-12-15T06:43:28.735Z,31.58
2022-12-15T06:45:58.523Z,30.35
2022-12-15T06:48:26.118Z,31.10
2022-12-15T06:50:53.471Z,31.80
2022-12-15T06:53:21.861Z,29.50
2022-12-15T06:55:49.510Z,25.55
2022-12-15T06:58:18.018Z,29.13
2022-12-15T07:00:46.488Z,30.50
2022-12-15T07:03:16.256Z,30.90
2022-12-15T07:08:12.057Z,26.50
2022-12-15T07:10:45.298Z,24.98
2022-12-15T07:13:13.483Z,28.58
2022-12-15T07:15:41.694Z,24.30
2022-12-15T07:18:10.668Z,28.25
2022-12-15T07:20:38.300Z,22.93
2022-12-15T07:23:09.542Z,29.95
2022-12-15T07:25:37.595Z,26.65
2022-12-15T07:28:05.076Z,28.85
2022-12-15T07:30:38.474Z,33.20
2022-12-15T07:33:06.544Z,26.42
2022-12-15T07:35:33.926Z,28.08
2022-12-15T07:38:01.217Z,27.23
2022-12-15T07:40:28.553Z,23.80
2022-12-15T07:43:00.972Z,28.17
2022-12-15T07:45:29.353Z,29.40
2022-12-15T07:47:56.844Z,29.13
2022-12-15T07:50:24.284Z,33.55
2022-12-15T07:52:51.656Z,26.40
2022-12-15T07:55:32.344Z,29.17
2022-12-15T07:58:06.387Z,34.88
2022-12-15T08:00:33.625Z,27.60
2022-12-15T08:03:05.366Z,30.15
2022-12-15T08:05:32.673Z,33.08
2022-12-15T08:08:00.085Z,32.65
2022-12-15T08:10:27.923Z,28.52
2022-12-15T08:12:55.870Z,27.25
2022-12-15T08:15:23.217Z,30.92
2022-12-15T08:17:50.562Z,28.98
2022-12-15T08:20:20.257Z,28.90
2022-12-15T08:22:47.720Z,32.85
2022-12-15T08:25:15.094Z,29.92
2022-12-15T08:27:42.444Z,33.80
2022-12-15T08:30:10.004Z,37.88
2022-12-15T08:32:37.389Z,29.38
2022-12-15T08:35:04.930Z,33.10
2022-12-15T08:37:32.298Z,29.67
2022-12-15T08:39:59.671Z,31.20
2022-12-15T08:42:28.790Z,31.48
2022-12-15T08:44:56.095Z,31.15
2022-12-15T08:47:33.013Z,31.73
2022-12-15T08:50:00.344Z,31.38
2022-12-15T08:52:27.558Z,29.40
2022-12-15T08:54:55.490Z,34.03
2022-12-15T08:57:22.754Z,37.25
2022-12-15T08:59:50.094Z,35.72
2022-12-15T09:02:17.702Z,34.88
2022-12-15T09:04:45.469Z,33.60
2022-12-15T09:07:13.593Z,30.90
2022-12-15T09:09:40.915Z,38.85
2022-12-15T09:12:10.892Z,39.80
2022-12-15T09:14:38.215Z,41.90
2022-12-15T09:17:05.608Z,42.58
2022-12-15T09:19:32.960Z,45.10
2022-12-15T09:22:00.906Z,45.38
2022-12-15T09:24:34.751Z,47.65
2022-12-15T09:27:03.356Z,48.97
2022-12-15T09:29:31.079Z,53.20
2022-12-15T09:31:58.267Z,49.47
2022-12-15T09:34:25.583Z,50.53
2022-12-15T09:36:52.890Z,45.00
2022-12-15T09:39:20.370Z,48.17
2022-12-15T09:41:53.845Z,47.47
2022-12-15T09:44:22.513Z,44.47
2022-12-15T09:46:54.118Z,39.55
2022-12-15T09:49:30.577Z,42.88
2022-12-15T09:52:10.632Z,45.42
2022-12-15T09:54:41.580Z,43.53
2022-12-15T09:57:16.839Z,38.15
2022-12-15T09:59:55.863Z,38.42
2022-12-15T10:02:29.725Z,33.97
2022-12-15T10:05:04.333Z,45.42
2022-12-15T10:07:40.910Z,42.50
2022-12-15T10:10:18.450Z,44.92
2022-12-15T10:12:57.625Z,42.15
2022-12-15T10:15:32.891Z,46.00
2022-12-15T10:18:03.880Z,48.50
2022-12-15T10:20:33.604Z,46.22
2022-12-15T10:25:32.238Z,46.70
2022-12-15T10:28:17.787Z,58.03
2022-12-15T10:31:04.809Z,50.47
2022-12-15T10:33:35.797Z,44.42
2022-12-15T10:36:07.560Z,35.92
2022-12-15T10:38:37.884Z,45.47
2022-12-15T10:41:06.851Z,33.88
2022-12-15T10:43:38.661Z,29.83
2022-12-15T10:46:15.547Z,31.80
2022-12-15T10:48:44.039Z,27.33
2022-12-15T10:51:21.039Z,32.30
2022-12-15T10:53:50.577Z,31.15
2022-12-15T10:59:35.406Z,48.10
2022-12-15T11:02:36.965Z,35.92
2022-12-15T11:05:24.270Z,33.63
2022-12-15T11:07:53.282Z,27.35
2022-12-15T11:10:28.594Z,23.85
2022-12-15T11:12:58.983Z,24.35
2022-12-15T11:15:35.219Z,22.15
2022-12-15T11:18:16.654Z,25.77
2022-12-15T11:20:46.351Z,26.63
2022-12-15T11:23:15.860Z,27.80
2022-12-15T11:25:44.927Z,41.05
2022-12-15T11:30:45.771Z,28.83
2022-12-15T11:33:13.203Z,28.98
2022-12-15T11:35:50.586Z,29.50
2022-12-15T11:38:22.215Z,29.27
2022-12-15T11:40:51.806Z,32.92
2022-12-15T11:45:49.326Z,35.45
2022-12-15T11:48:20.096Z,27.15
2022-12-15T11:50:47.398Z,25.48
2022-12-15T11:53:35.520Z,21.30
2022-12-15T11:56:09.230Z,20.67
2022-12-15T11:58:45.385Z,20.00
2022-12-15T12:01:34.854Z,17.92
2022-12-15T12:04:08.621Z,18.45
2022-12-15T12:06:45.107Z,15.35
2022-12-15T12:09:29.344Z,18.20
2022-12-15T12:12:18.297Z,19.65
2022-12-15T12:15:00.875Z,16.92
2022-12-15T12:17:41.415Z,14.52
2022-12-15T12:20:20.521Z,15.98
2022-12-15T12:23:05.914Z,15.57
2022-12-15T12:25:40.840Z,14.15
2022-12-15T12:28:14.431Z,16.30
2022-12-15T12:30:43.445Z,18.95
2022-12-15T12:33:49.393Z,16.00
2022-12-15T12:36:17.492Z,15.35
2022-12-15T12:38:53.421Z,16.70
2022-12-15T12:41:39.103Z,23.08
2022-12-15T12:44:29.254Z,14.57
2022-12-15T12:46:58.025Z,11.32
2022-12-15T12:49:39.940Z,13.70
2022-12-15T12:52:14.466Z,15.07
2022-12-15T12:54:42.709Z,12.85
2022-12-15T12:57:13.065Z,15.93
2022-12-15T13:00:03.568Z,13.65
2022-12-15T13:02:35.441Z,12.70
2022-12-15T13:05:05.152Z,15.65
2022-12-15T13:10:08.727Z,11.60
2022-12-15T13:12:58.697Z,16.50
2022-12-15T13:15:29.384Z,13.35
2022-12-15T13:18:06.473Z,16.23
2022-12-15T13:20:35.296Z,13.18
2022-12-15T13:23:20.961Z,12.38
2022-12-15T13:25:57.366Z,10.95
2022-12-15T13:28:27.919Z,12.25
2022-12-15T13:31:14.299Z,15.07
2022-12-15T13:33:45.741Z,12.75
2022-12-15T13:36:34.911Z,13.50
2022-12-15T13:39:02.242Z,15.25
2022-12-15T13:41:29.597Z,16.52
2022-12-15T13:43:58.431Z,13.68
2022-12-15T13:46:29.829Z,11.82
2022-12-15T13:49:05.988Z,13.60
2022-12-15T13:51:42.515Z,19.20
2022-12-15T13:54:10.487Z,20.00
2022-12-15T13:56:40.791Z,15.73
2022-12-15T13:59:15.188Z,14.10
2022-12-15T14:01:51.049Z,14.80
2022-12-15T14:04:19.156Z,18.95
2022-12-15T14:06:50.706Z,15.55
2022-12-15T14:09:21.145Z,15.20
2022-12-15T14:11:54.083Z,18.33
2022-12-15T14:14:34.265Z,15.55
2022-12-15T14:17:02.767Z,14.70
2022-12-15T14:19:40.638Z,15.38
2022-12-15T14:22:25.157Z,19.05
2022-12-15T14:25:00.159Z,13.85
2022-12-15T14:27:29.042Z,17.30
2022-12-15T14:30:11.383Z,15.13
2022-12-15T14:32:39.065Z,17.10
2022-12-15T14:35:06.971Z,20.20
2022-12-15T14:37:34.991Z,22.00
2022-12-15T14:40:02.490Z,25.42
2022-12-15T14:42:31.067Z,23.85
2022-12-15T14:44:58.663Z,23.35
2022-12-15T14:47:27.002Z,21.70
2022-12-15T14:49:55.002Z,20.30
2022-12-15T14:52:32.901Z,22.48
2022-12-15T14:55:02.000Z,25.55
2022-12-15T14:57:44.259Z,27.75
2022-12-15T15:00:32.423Z,23.20
2022-12-15T15:03:04.146Z,31.10
2022-12-15T15:03:29.315Z,27.50
2022-12-15T15:05:59.553Z,26.00
2022-12-15T15:08:35.667Z,27.75
2022-12-15T15:11:19.355Z,26.55
2022-12-15T15:13:47.061Z,26.38
2022-12-15T15:16:17.235Z,27.83
2022-12-15T15:18:45.137Z,26.83
2022-12-15T15:21:18.241Z,25.55
2022-12-15T15:24:00.703Z,30.23
2022-12-15T15:26:28.671Z,26.13
2022-12-15T15:28:56.088Z,29.02
2022-12-15T15:31:27.384Z,30.83
2022-12-15T15:33:58.527Z,24.77
2022-12-15T15:36:30.593Z,24.70
2022-12-15T15:38:58.286Z,26.75
2022-12-15T15:41:31.609Z,26.10
2022-12-15T15:43:59.989Z,21.08
2022-12-15T15:46:38.737Z,26.10
2022-12-15T15:49:07.967Z,25.50
2022-12-15T15:51:35.958Z,22.17
2022-12-15T15:54:08.605Z,26.35
2022-12-15T15:56:35.793Z,25.02
2022-12-15T15:59:10.265Z,26.10
2022-12-15T16:01:37.727Z,27.00
2022-12-15T16:04:06.849Z,31.10
2022-12-15T16:06:34.614Z,27.20
2022-12-15T16:09:02.039Z,25.50
2022-12-15T16:11:33.320Z,24.35
2022-12-15T16:14:01.596Z,26.42
2022-12-15T16:16:32.082Z,30.95
2022-12-15T16:18:59.987Z,29.15
2022-12-15T16:21:28.340Z,28.70
2022-12-15T16:23:56.007Z,29.27
2022-12-15T16:26:31.055Z,32.50
2022-12-15T16:28:59.651Z,29.05
2022-12-15T16:31:41.309Z,28.00
2022-12-15T16:34:09.434Z,26.55
2022-12-15T16:36:36.791Z,30.50
2022-12-15T16:39:05.024Z,31.00
2022-12-15T16:41:32.339Z,30.45
2022-12-15T16:43:59.680Z,34.13
2022-12-15T16:46:27.011Z,28.98
2022-12-15T16:48:54.789Z,27.67
2022-12-15T16:51:50.948Z,31.02
2022-12-15T16:54:20.847Z,27.23
2022-12-15T16:56:48.442Z,25.10
2022-12-15T16:59:32.472Z,28.30
2022-12-15T17:02:01.129Z,30.33
2022-12-15T17:04:28.552Z,30.58
2022-12-15T17:06:55.816Z,34.55
2022-12-15T17:09:24.365Z,38.45
2022-12-15T17:11:52.144Z,35.58
2022-12-15T17:14:19.434Z,36.92
2022-12-15T17:16:46.855Z,37.30
2022-12-15T17:19:20.667Z,43.28
2022-12-15T17:21:49.744Z,37.75
2022-12-15T17:24:20.111Z,32.45
2022-12-15T17:26:49.866Z,36.63
2022-12-15T17:31:45.032Z,38.28
2022-12-15T17:34:34.601Z,41.17
2022-12-15T17:37:03.338Z,43.05
2022-12-15T17:39:30.908Z,35.58
2022-12-15T17:42:00.454Z,38.88
2022-12-15T17:44:34.260Z,49.88
2022-12-15T17:47:03.911Z,41.38
2022-12-15T17:49:35.545Z,39.75
2022-12-15T17:52:05.152Z,50.83
2022-12-15T17:54:35.650Z,44.88
2022-12-15T17:57:02.942Z,45.50
2022-12-15T17:59:32.185Z,44.63
2022-12-15T18:01:59.716Z,42.10
2022-12-15T18:04:27.261Z,53.50
2022-12-15T18:07:01.206Z,42.53
2022-12-15T18:09:31.058Z,46.42
2022-12-15T18:11:58.492Z,35.97
2022-12-15T18:14:25.764Z,50.38
2022-12-15T18:16:53.130Z,56.13
2022-12-15T18:19:20.437Z,52.65
2022-12-15T18:21:48.016Z,47.33
2022-12-15T18:24:17.117Z,56.83
2022-12-15T18:26:44.512Z,43.78
2022-12-15T18:29:17.793Z,55.53
2022-12-15T18:31:48.380Z,49.90
2022-12-15T18:34:21.067Z,48.03
2022-12-15T18:36:48.762Z,59.80
2022-12-15T18:39:23.678Z,44.53
2022-12-15T18:41:51.763Z,49.15
2022-12-15T18:44:23.674Z,46.60
2022-12-15T18:49:35.543Z,52.08
2022-12-15T18:52:03.969Z,42.13
2022-12-15T18:54:31.916Z,51.38
2022-12-15T18:56:59.547Z,47.45
2022-12-15T18:59:29.882Z,51.53
2022-12-15T19:01:57.309Z,49.17
2022-12-15T19:04:24.601Z,49.72
2022-12-15T19:06:51.913Z,43.53
2022-12-15T19:09:21.762Z,49.92
2022-12-15T19:12:19.210Z,45.25
2022-12-15T19:14:47.483Z,44.83
2022-12-15T19:17:34.855Z,46.90
2022-12-15T19:20:25.152Z,46.25
2022-12-15T19:22:53.332Z,43.40
2022-12-15T19:25:25.369Z,42.20
2022-12-15T19:27:58.558Z,44.53
2022-12-15T19:30:30.210Z,45.03
2022-12-15T19:32:57.968Z,51.75
2022-12-15T19:35:26.071Z,52.72
2022-12-15T19:37:55.610Z,47.80
2022-12-15T19:40:24.645Z,54.45
2022-12-15T19:42:55.621Z,44.58
2022-12-15T19:45:31.221Z,53.35
2022-12-15T19:47:58.807Z,50.72
2022-12-15T19:50:36.163Z,54.13
2022-12-15T19:53:06.704Z,56.65
2022-12-15T19:55:35.474Z,64.93
2022-12-15T19:58:15.485Z,44.77
2022-12-15T20:00:44.064Z,60.80
2022-12-15T20:03:11.481Z,58.90
2022-12-15T20:05:38.916Z,60.97
2022-12-15T20:08:09.968Z,57.83
2022-12-15T20:10:37.486Z,68.50
2022-12-15T20:13:04.871Z,63.92
2022-12-15T20:15:32.144Z,58.50
2022-12-15T20:17:59.945Z,56.88
2022-12-15T20:20:28.713Z,60.38
2022-12-15T20:22:57.399Z,60.00
2022-12-15T20:25:26.605Z,58.33
2022-12-15T20:27:54.078Z,43.80
2022-12-15T20:30:26.855Z,52.78
2022-12-15T20:32:54.562Z,69.65
2022-12-15T20:35:22.743Z,78.80
2022-12-15T20:37:50.389Z,55.80
2022-12-15T20:40:24.876Z,62.33
2022-12-15T20:42:52.945Z,56.03
2022-12-15T20:45:21.774Z,59.65
2022-12-15T20:47:51.581Z,58.40
2022-12-15T20:52:45.983Z,56.33
2022-12-15T20:55:14.788Z,59.17
2022-12-15T20:57:42.245Z,60.47
2022-12-15T21:00:11.707Z,63.38
2022-12-15T21:02:39.149Z,67.22
2022-12-15T21:05:12.535Z,66.50
2022-12-15T21:07:39.774Z,60.20
2022-12-15T21:10:07.267Z,69.03
2022-12-15T21:12:34.603Z,60.35
2022-12-15T21:15:01.961Z,69.82
2022-12-15T21:17:29.890Z,64.78
2022-12-15T21:20:00.324Z,65.20
2022-12-15T21:22:28.996Z,59.13
2022-12-15T21:24:59.705Z,65.10
2022-12-15T21:27:27.072Z,60.92
2022-12-15T21:29:54.449Z,63.85
2022-12-15T21:32:22.273Z,62.88
2022-12-15T21:34:50.001Z,54.33
2022-12-15T21:37:27.724Z,65.35
2022-12-15T21:39:55.163Z,57.25
2022-12-15T21:42:22.626Z,60.78
2022-12-15T21:44:49.988Z,58.90
2022-12-15T21:47:24.558Z,58.78
2022-12-15T21:49:55.096Z,56.25
2022-12-15T21:52:22.938Z,56.47
2022-12-15T21:54:50.279Z,51.53
2022-12-15T21:57:20.492Z,51.35
2022-12-15T21:59:47.845Z,50.72
2022-12-15T22:02:25.731Z,54.65
2022-12-15T22:04:55.091Z,45.95
2022-12-15T22:07:22.456Z,43.75
2022-12-15T22:09:49.769Z,42.10
2022-12-15T22:12:20.599Z,39.88
2022-12-15T22:14:48.225Z,35.47
2022-12-15T22:17:20.225Z,47.95
2022-12-15T22:19:47.685Z,44.42
2022-12-15T22:22:16.630Z,48.85
2022-12-15T22:24:44.717Z,37.72
2022-12-15T22:27:19.683Z,39.85
2022-12-15T22:29:47.430Z,38.90
2022-12-15T22:32:15.661Z,43.63
2022-12-15T22:34:42.989Z,41.47
2022-12-15T22:37:10.353Z,35.20
2022-12-15T22:39:37.648Z,37.97
2022-12-15T22:42:05.171Z,35.78
2022-12-15T22:44:33.989Z,35.17
2022-12-15T22:47:02.366Z,41.40
2022-12-15T22:49:34.810Z,37.70
2022-12-15T22:52:02.220Z,30.85
2022-12-15T22:54:30.085Z,32.92
2022-12-15T22:56:59.907Z,35.63
2022-12-15T22:59:30.592Z,33.97
2022-12-15T23:01:58.167Z,32.50
2022-12-15T23:04:25.815Z,31.13
2022-12-15T23:06:53.256Z,28.17
2022-12-15T23:09:22.223Z,32.40
2022-12-15T23:11:49.536Z,30.40
2022-12-15T23:14:18.007Z,34.58
2022-12-15T23:16:46.630Z,34.28
2022-12-15T23:19:24.042Z,37.05
2022-12-15T23:21:52.207Z,33.95
2022-12-15T23:24:19.633Z,33.60
2022-12-15T23:26:47.088Z,31.70
2022-12-15T23:29:14.391Z,26.40
2022-12-15T23:31:42.127Z,25.90
2022-12-15T23:34:10.296Z,26.85
2022-12-15T23:36:37.617Z,33.47
2022-12-15T23:39:04.903Z,24.98
2022-12-15T23:41:33.054Z,24.15
2022-12-15T23:44:00.507Z,27.38
2022-12-15T23:46:27.869Z,25.40
2022-12-15T23:48:55.219Z,20.88
2022-12-15T23:51:31.674Z,18.60
2022-12-15T23:53:59.728Z,15.80
2022-12-15T23:56:27.048Z,16.92
2022-12-15T23:58:55.528Z,16.95
